Terminal Aerodrome Forecast
Issued by NWS

Home | Current Version | Previous Version | Text Only | Print | Product List | Glossary On
Versions: 1 2 3 4 5 6 7 8 9 10 11 12 13
000
FTUS43 KICT 021622 AAA
TAFCNU
TAF AMD
KCNU 021622Z 0216/0312 18010KT P6SM VCSH OVC100
     FM021800 18012KT P6SM SCT060
     FM030000 16007KT P6SM SKC=

USA.gov is the U.S. government's official web portal to all federal, state and local government web resources and services.